Time;durP1;ratioP1;P1;durP2;ratioP2;P2;SDS_P1;SDS_P2;PMS_P1;PMS_P2;Temp;Humidity;BMP_temperature;BMP_pressure;BME280_temperature;BME280_humidity;BME280_pressure;Samples;Min_cycle;Max_cycle;Signal;HPM_P1;HPM_P2
2023/06/17 00:01:09;;;;;;;2.10;1.70;;;;;;;15.78;100.00;99404.61;109075;1251;58845;-53
2023/06/17 00:03:36;;;;;;;4.10;1.60;;;;;;;15.76;100.00;99402.43;109147;1251;73822;-53
2023/06/17 00:06:04;;;;;;;2.70;1.40;;;;;;;15.72;100.00;99403.67;109183;1253;67400;-53
2023/06/17 00:08:31;;;;;;;1.50;1.30;;;;;;;15.69;100.00;99406.22;109110;1251;72769;-53
2023/06/17 00:10:58;;;;;;;3.00;1.20;;;;;;;15.67;100.00;99402.55;109148;1252;61618;-53
2023/06/17 00:13:26;;;;;;;1.90;1.60;;;;;;;15.67;100.00;99401.19;109134;1251;60086;-53
2023/06/17 00:15:56;;;;;;;9.70;3.10;;;;;;;15.62;100.00;99402.95;109148;1254;72385;-53
2023/06/17 00:18:24;;;;;;;13.40;2.30;;;;;;;15.57;100.00;99405.21;109175;1253;66688;-53
2023/06/17 00:20:52;;;;;;;12.60;4.10;;;;;;;15.55;100.00;99400.81;109141;1254;72854;-53
2023/06/17 00:23:20;;;;;;;17.40;3.40;;;;;;;15.52;100.00;99396.61;109173;1253;59388;-53
2023/06/17 00:25:48;;;;;;;10.20;2.90;;;;;;;15.52;100.00;99397.51;109145;1251;60096;-53
2023/06/17 00:28:16;;;;;;;7.40;2.10;;;;;;;15.55;100.00;99393.56;109165;1251;73883;-53
2023/06/17 00:30:46;;;;;;;19.90;2.60;;;;;;;15.56;100.00;99398.41;109172;1251;66674;-53
2023/06/17 00:33:14;;;;;;;8.20;2.50;;;;;;;15.56;100.00;99393.81;109063;1251;73600;-53
2023/06/17 00:35:43;;;;;;;12.40;3.00;;;;;;;15.56;100.00;99394.93;109075;1252;63933;-53
2023/06/17 00:38:11;;;;;;;15.80;2.50;;;;;;;15.54;100.00;99393.63;109019;1252;58775;-50
2023/06/17 00:40:38;;;;;;;6.80;2.80;;;;;;;15.54;100.00;99393.48;107783;1251;73166;-50
2023/06/17 00:43:05;;;;;;;7.90;1.90;;;;;;;15.51;100.00;99396.85;105451;1251;65775;-50
2023/06/17 00:45:38;;;;;;;8.40;2.40;;;;;;;15.47;100.00;99393.17;105444;1251;71659;-51
2023/06/17 00:48:10;;;;;;;9.90;2.60;;;;;;;15.44;100.00;99391.61;105943;1254;60606;-50
2023/06/17 00:50:38;;;;;;;8.90;2.20;;;;;;;15.42;100.00;99391.91;105464;1254;60536;-50
2023/06/17 00:53:05;;;;;;;10.20;2.70;;;;;;;15.43;100.00;99391.34;105471;1257;73880;-51
2023/06/17 00:55:35;;;;;;;12.90;3.20;;;;;;;15.43;100.00;99394.55;106313;1254;66779;-52
2023/06/17 00:58:02;;;;;;;11.80;3.30;;;;;;;15.43;100.00;99390.61;105848;1251;72655;-50
2023/06/17 01:00:30;;;;;;;11.50;3.20;;;;;;;15.43;100.00;99391.33;105336;1253;60615;-51
2023/06/17 01:02:58;;;;;;;6.10;2.30;;;;;;;15.44;100.00;99390.02;105745;1254;60429;-51
2023/06/17 01:07:57;;;;;;;7.20;2.50;;;;;;;15.38;100.00;99385.02;102405;1293;601204;-52
2023/06/17 01:10:38;;;;;;;10.90;2.90;;;;;;;15.30;100.00;99389.73;104796;1267;60043;-51
2023/06/17 01:13:06;;;;;;;2.90;2.10;;;;;;;15.27;100.00;99388.55;104625;1265;60631;-52
2023/06/17 01:15:36;;;;;;;1.80;1.70;;;;;;;15.24;100.00;99389.48;104449;1267;72009;-51
2023/06/17 01:18:04;;;;;;;5.50;1.50;;;;;;;15.18;100.00;99389.21;104344;1274;66741;-49
2023/06/17 01:20:35;;;;;;;1.70;1.30;;;;;;;15.10;100.00;99390.00;104070;1271;372674;-52
2023/06/17 01:23:05;;;;;;;2.60;1.90;;;;;;;15.04;100.00;99391.15;104606;1268;60552;-52
2023/06/17 01:25:34;;;;;;;1.40;1.20;;;;;;;15.00;100.00;99389.96;104876;1272;59147;-51
2023/06/17 01:28:13;;;;;;;2.90;1.30;;;;;;;14.94;100.00;99386.62;104739;1274;72250;-50
2023/06/17 01:30:41;;;;;;;1.80;1.20;;;;;;;14.89;100.00;99387.20;104756;1270;64523;-51
2023/06/17 01:33:08;;;;;;;2.80;1.60;;;;;;;14.85;100.00;99390.70;104658;1270;72778;-52
2023/06/17 01:35:36;;;;;;;1.50;1.10;;;;;;;14.83;100.00;99384.55;104602;1270;60615;-51
2023/06/17 01:38:15;;;;;;;2.40;1.40;;;;;;;14.82;100.00;99387.48;104644;1281;59321;-52
2023/06/17 01:40:43;;;;;;;1.70;1.20;;;;;;;14.80;100.00;99389.59;104645;1270;73497;-50
2023/06/17 01:43:11;;;;;;;1.60;1.30;;;;;;;14.77;100.00;99390.58;104498;1271;65507;-52
2023/06/17 01:45:40;;;;;;;7.10;1.70;;;;;;;14.75;100.00;99392.85;104826;1264;72978;-51
2023/06/17 01:48:07;;;;;;;4.10;1.60;;;;;;;14.76;100.00;99394.06;104770;1264;60385;-52
2023/06/17 01:50:36;;;;;;;1.90;1.40;;;;;;;14.78;100.00;99393.05;104635;1272;60236;-48
2023/06/17 01:53:04;;;;;;;3.90;1.40;;;;;;;14.80;100.00;99400.13;104826;1264;73372;-52
2023/06/17 01:55:31;;;;;;;1.80;1.30;;;;;;;14.82;100.00;99395.09;104692;1269;67174;-53
2023/06/17 01:57:59;;;;;;;1.60;1.30;;;;;;;14.83;100.00;99400.23;104627;1272;72027;-49
2023/06/17 02:00:26;;;;;;;4.70;1.80;;;;;;;14.85;100.00;99395.98;104597;1270;60509;-51
2023/06/17 02:02:56;;;;;;;1.40;1.30;;;;;;;14.85;100.00;99402.84;104898;1279;59573;-48
2023/06/17 02:05:23;;;;;;;2.20;1.20;;;;;;;14.84;100.00;99395.48;104850;1264;71320;-50
2023/06/17 02:07:52;;;;;;;2.10;1.40;;;;;;;14.84;100.00;99403.44;104701;1265;67711;-50
2023/06/17 02:10:19;;;;;;;1.90;1.70;;;;;;;14.85;100.00;99402.65;104691;1268;71786;-48
2023/06/17 02:12:47;;;;;;;1.60;1.50;;;;;;;14.85;100.00;99401.72;105037;1264;61182;-47
2023/06/17 02:15:15;;;;;;;1.90;1.30;;;;;;;14.87;100.00;99397.64;104704;1264;60625;-46
2023/06/17 02:17:43;;;;;;;3.60;1.60;;;;;;;14.86;100.00;99400.92;104704;1270;73110;-48
2023/06/17 02:20:11;;;;;;;2.20;1.60;;;;;;;14.85;100.00;99397.92;105366;1264;65455;-50
2023/06/17 02:22:38;;;;;;;3.80;1.40;;;;;;;14.83;100.00;99405.86;104610;1269;73252;-49
2023/06/17 02:25:06;;;;;;;1.80;1.70;;;;;;;14.80;100.00;99405.13;104638;1267;60522;-48
2023/06/17 02:27:35;;;;;;;4.10;1.50;;;;;;;14.77;100.00;99402.10;105106;1270;59461;-46
2023/06/17 02:30:03;;;;;;;5.90;1.80;;;;;;;14.71;100.00;99402.34;104617;1264;73024;-49
2023/06/17 02:32:31;;;;;;;2.10;1.40;;;;;;;14.68;100.00;99404.94;107323;1269;67227;-52
2023/06/17 02:34:58;;;;;;;3.60;1.50;;;;;;;14.67;100.00;99406.63;104713;1270;74364;-48
2023/06/17 02:37:26;;;;;;;2.30;1.70;;;;;;;14.64;100.00;99406.12;108222;1264;60424;-50
2023/06/17 02:39:54;;;;;;;1.40;1.30;;;;;;;14.61;100.00;99409.39;107391;1264;60043;-48
2023/06/17 02:42:23;;;;;;;1.80;1.40;;;;;;;14.60;100.00;99408.95;105217;1270;73500;-47
2023/06/17 02:44:50;;;;;;;3.00;1.40;;;;;;;14.60;100.00;99411.42;104640;1270;67549;-49
2023/06/17 02:47:18;;;;;;;3.40;1.60;;;;;;;14.64;100.00;99411.85;104525;1270;72708;-50
2023/06/17 02:49:45;;;;;;;1.80;1.30;;;;;;;14.68;100.00;99411.10;104773;1265;60375;-50
2023/06/17 02:52:12;;;;;;;1.40;1.10;;;;;;;14.69;100.00;99410.85;104523;1264;59994;-47
2023/06/17 02:54:40;;;;;;;1.40;1.20;;;;;;;14.68;100.00;99412.14;104608;1264;71816;-47
2023/06/17 02:57:11;;;;;;;3.10;1.10;;;;;;;14.68;100.00;99413.74;104533;1264;70203;-47
2023/06/17 02:59:38;;;;;;;2.70;1.10;;;;;;;14.70;100.00;99415.95;108331;1264;72476;-50
2023/06/17 03:02:06;;;;;;;2.40;1.40;;;;;;;14.73;100.00;99417.77;108374;1267;61716;-50
2023/06/17 03:04:36;;;;;;;1.60;1.30;;;;;;;14.75;100.00;99416.66;108268;1267;58905;-48
2023/06/17 03:07:05;;;;;;;1.80;1.60;;;;;;;14.80;100.00;99419.61;108202;1270;73113;-50
2023/06/17 03:09:32;;;;;;;3.60;1.30;;;;;;;14.86;100.00;99420.44;108270;1265;66404;-50
2023/06/17 03:12:02;;;;;;;3.10;1.30;;;;;;;14.94;100.00;99420.91;108273;1266;72667;-48
2023/06/17 03:14:30;;;;;;;2.80;1.40;;;;;;;15.05;100.00;99423.07;108303;1265;60414;-49
2023/06/17 03:16:58;;;;;;;3.40;1.30;;;;;;;15.12;100.00;99424.84;108300;1265;60033;-49
2023/06/17 03:19:27;;;;;;;1.70;1.40;;;;;;;15.19;100.00;99427.11;108234;1267;72171;-47
2023/06/17 03:21:54;;;;;;;4.80;1.30;;;;;;;15.24;100.00;99426.55;106887;1267;66204;-48
2023/06/17 03:24:25;;;;;;;2.10;1.40;;;;;;;15.31;100.00;99426.23;108360;1265;72494;-49
2023/06/17 03:26:53;;;;;;;1.70;1.20;;;;;;;15.39;100.00;99434.70;108296;1267;60407;-50
2023/06/17 03:29:21;;;;;;;3.10;1.30;;;;;;;15.46;100.00;99435.19;108311;1266;62055;-49
2023/06/17 03:31:51;;;;;;;1.20;1.10;;;;;;;15.55;100.00;99433.52;108280;1266;72295;-48
2023/06/17 03:34:19;;;;;;;1.80;1.30;;;;;;;15.63;100.00;99434.54;108218;1266;66964;-48
2023/06/17 03:36:47;;;;;;;2.00;1.60;;;;;;;15.71;100.00;99437.16;107760;1266;72051;-47
2023/06/17 03:39:14;;;;;;;1.50;1.30;;;;;;;15.80;100.00;99437.73;108186;1265;62246;-47
2023/06/17 03:41:42;;;;;;;2.50;1.60;;;;;;;15.90;100.00;99442.11;104840;1267;59759;-48
2023/06/17 03:44:10;;;;;;;2.10;1.30;;;;;;;16.00;100.00;99443.72;105639;1269;73034;-50
2023/06/17 03:46:38;;;;;;;2.10;1.40;;;;;;;16.10;100.00;99443.85;104732;1268;67106;-49
2023/06/17 03:49:05;;;;;;;2.60;1.30;;;;;;;16.20;100.00;99445.44;104612;1267;71875;-50
2023/06/17 03:51:32;;;;;;;1.50;1.10;;;;;;;16.30;100.00;99443.60;104497;1267;59952;-50
2023/06/17 03:54:00;;;;;;;2.80;1.30;;;;;;;16.40;100.00;99443.16;104485;1270;59688;-49
2023/06/17 03:56:28;;;;;;;1.60;1.30;;;;;;;16.52;100.00;99444.20;104648;1272;72498;-47
2023/06/17 03:58:57;;;;;;;2.10;1.00;;;;;;;16.63;100.00;99445.16;104997;1257;65776;-51
2023/06/17 04:01:24;;;;;;;1.30;1.20;;;;;;;16.76;100.00;99447.64;106122;1260;72798;-47
2023/06/17 04:03:51;;;;;;;3.50;1.60;;;;;;;16.88;100.00;99450.12;105186;1261;60684;-50
2023/06/17 04:06:19;;;;;;;2.60;1.30;;;;;;;17.01;100.00;99453.59;104993;1258;59976;-46
2023/06/17 04:08:47;;;;;;;1.50;1.40;;;;;;;17.14;100.00;99455.70;105100;1260;72974;-50
2023/06/17 04:11:15;;;;;;;1.50;1.40;;;;;;;17.26;100.00;99457.62;105093;1263;66678;-51
2023/06/17 04:13:42;;;;;;;1.50;1.40;;;;;;;17.38;100.00;99460.94;105094;1263;71392;-48
2023/06/17 04:16:09;;;;;;;3.00;1.40;;;;;;;17.51;100.00;99462.23;104945;1257;60697;-51
2023/06/17 04:18:37;;;;;;;2.80;1.50;;;;;;;17.65;100.00;99468.05;105082;1257;60050;-49
2023/06/17 04:21:05;;;;;;;1.30;1.10;;;;;;;17.78;100.00;99468.03;104908;1265;72146;-51
2023/06/17 04:23:32;;;;;;;3.70;2.30;;;;;;;17.94;100.00;99472.53;106156;1260;66865;-47
2023/06/17 04:26:00;;;;;;;1.40;1.30;;;;;;;18.10;100.00;99478.11;105136;1258;73100;-49
2023/06/17 04:28:31;;;;;;;2.40;1.50;;;;;;;18.25;100.00;99478.69;107327;1259;60504;-51
2023/06/17 04:31:00;;;;;;;4.60;1.40;;;;;;;18.40;100.00;99480.59;105239;1260;59624;-48
2023/06/17 04:33:30;;;;;;;2.20;1.50;;;;;;;18.56;100.00;99485.28;104988;1263;73170;-45
2023/06/17 04:36:08;;;;;;;2.10;1.90;;;;;;;18.72;100.00;99492.80;105369;1257;66973;-52
2023/06/17 04:38:38;;;;;;;1.90;1.70;;;;;;;18.87;100.00;99492.20;105187;1259;71419;-49
2023/06/17 04:41:06;;;;;;;3.00;1.80;;;;;;;19.01;100.00;99496.14;105367;1258;60138;-46
2023/06/17 04:43:36;;;;;;;2.10;1.60;;;;;;;19.13;100.00;99498.16;105232;1258;60073;-48
2023/06/17 04:46:08;;;;;;;4.80;1.60;;;;;;;19.25;100.00;99503.47;105585;1257;72176;-46
2023/06/17 04:48:37;;;;;;;2.40;1.50;;;;;;;19.36;100.00;99505.93;104570;1261;67578;-46
2023/06/17 04:51:07;;;;;;;5.30;2.10;;;;;;;19.46;100.00;99509.99;105051;1257;72953;-49
2023/06/17 04:53:38;;;;;;;3.20;1.40;;;;;;;19.56;100.00;99515.12;104652;1257;59624;-48
2023/06/17 04:56:09;;;;;;;1.90;1.60;;;;;;;19.65;100.00;99514.59;105128;1258;59982;-50
2023/06/17 04:58:38;;;;;;;4.30;1.30;;;;;;;19.75;100.00;99519.00;105375;1262;71790;-47
2023/06/17 05:01:10;;;;;;;1.40;1.20;;;;;;;19.84;100.00;99520.22;105434;1263;68455;-49
2023/06/17 05:03:39;;;;;;;2.20;1.80;;;;;;;19.94;100.00;99521.29;105700;1258;73131;-49
2023/06/17 05:06:06;;;;;;;2.00;1.70;;;;;;;20.02;100.00;99529.65;108635;1257;59996;-51
2023/06/17 05:08:34;;;;;;;1.90;1.70;;;;;;;20.11;100.00;99537.79;105292;1257;59836;-53
2023/06/17 05:11:02;;;;;;;4.20;1.50;;;;;;;20.21;100.00;99541.44;104685;1263;70677;-50
2023/06/17 05:13:30;;;;;;;2.40;1.50;;;;;;;20.30;100.00;99542.90;105584;1259;67088;-46
2023/06/17 05:15:58;;;;;;;6.80;2.00;;;;;;;20.39;100.00;99549.95;104598;1260;72412;-49
2023/06/17 05:18:27;;;;;;;3.30;1.90;;;;;;;20.49;100.00;99551.98;107673;1257;61748;-48
2023/06/17 05:20:55;;;;;;;2.60;1.80;;;;;;;20.59;100.00;99556.34;104789;1263;60488;-47
2023/06/17 05:23:22;;;;;;;3.00;1.80;;;;;;;20.69;100.00;99561.96;105151;1257;72560;-46
2023/06/17 05:25:50;;;;;;;2.10;1.50;;;;;;;20.79;100.00;99566.83;108887;1257;65622;-49
2023/06/17 05:28:18;;;;;;;6.30;1.80;;;;;;;20.89;100.00;99565.02;108748;1259;72684;-50
2023/06/17 05:30:45;;;;;;;3.30;2.30;;;;;;;20.98;100.00;99568.85;105351;1263;60564;-49
2023/06/17 05:33:15;;;;;;;2.50;1.20;;;;;;;21.08;100.00;99573.04;105224;1262;60415;-49
2023/06/17 05:35:43;;;;;;;2.20;1.60;;;;;;;21.17;100.00;99577.15;104997;1263;73892;-49
2023/06/17 05:38:10;;;;;;;2.00;1.20;;;;;;;21.26;100.00;99581.20;104994;1263;65714;-48
2023/06/17 05:40:37;;;;;;;2.10;1.10;;;;;;;21.35;100.00;99587.11;105206;1257;71345;-48
2023/06/17 05:43:05;;;;;;;5.70;1.50;;;;;;;21.43;100.00;99589.63;105420;1263;60347;-47
2023/06/17 05:45:32;;;;;;;2.90;1.20;;;;;;;21.52;100.00;99588.56;104951;1260;60415;-48
2023/06/17 05:48:01;;;;;;;2.00;1.30;;;;;;;21.60;100.00;99594.34;104580;1256;72553;-46
2023/06/17 05:50:29;;;;;;;1.90;1.30;;;;;;;21.69;100.00;99599.53;105459;1262;68121;-47
2023/06/17 05:52:58;;;;;;;3.70;1.30;;;;;;;21.77;100.00;99607.83;105202;1257;73134;-46
2023/06/17 05:55:26;;;;;;;1.60;1.50;;;;;;;21.87;100.00;99610.73;104579;1257;61151;-47
2023/06/17 05:57:54;;;;;;;1.50;1.30;;;;;;;21.97;100.00;99609.93;104567;1260;62314;-47
2023/06/17 06:00:22;;;;;;;5.30;1.30;;;;;;;22.05;100.00;99610.79;104507;1257;73733;-46
2023/06/17 06:02:50;;;;;;;1.60;1.00;;;;;;;22.13;100.00;99617.85;104930;1263;67567;-50
2023/06/17 06:05:18;;;;;;;1.20;1.00;;;;;;;22.21;100.00;99621.25;108744;1256;72667;-53
2023/06/17 06:07:45;;;;;;;3.50;1.50;;;;;;;22.31;100.00;99620.69;108801;1257;59489;-50
2023/06/17 06:10:15;;;;;;;1.60;1.30;;;;;;;22.39;100.00;99624.74;108617;1263;60269;-50
2023/06/17 06:12:45;;;;;;;1.80;1.20;;;;;;;22.48;100.00;99625.89;109079;1254;72854;-50
2023/06/17 06:15:13;;;;;;;1.40;1.00;;;;;;;22.57;100.00;99625.69;108899;1254;65840;-49
2023/06/17 06:17:40;;;;;;;1.10;1.00;;;;;;;22.65;100.00;99626.16;109271;1252;72446;-49
2023/06/17 06:20:08;;;;;;;2.50;0.90;;;;;;;22.74;100.00;99630.28;109138;1254;60027;-48
2023/06/17 06:22:35;;;;;;;4.30;0.90;;;;;;;22.83;100.00;99632.83;108957;1254;59030;-49
2023/06/17 06:25:04;;;;;;;3.50;0.90;;;;;;;22.91;100.00;99637.42;109014;1253;72561;-51
2023/06/17 06:27:31;;;;;;;1.00;0.90;;;;;;;23.01;100.00;99639.02;109003;1254;67273;-50
2023/06/17 06:29:59;;;;;;;3.00;0.90;;;;;;;23.10;100.00;99639.72;108922;1254;72957;-50
2023/06/17 06:32:27;;;;;;;2.00;1.00;;;;;;;23.20;100.00;99639.85;108941;1254;59852;-54
2023/06/17 06:34:54;;;;;;;5.70;1.00;;;;;;;23.28;100.00;99641.52;108988;1253;60507;-51
2023/06/17 06:37:22;;;;;;;2.50;1.60;;;;;;;23.36;100.00;99643.60;109046;1253;74284;-49
2023/06/17 06:39:50;;;;;;;1.30;0.90;;;;;;;23.44;100.00;99641.78;109065;1253;67727;-54
2023/06/17 06:42:17;;;;;;;1.80;0.80;;;;;;;23.51;100.00;99644.72;105339;1256;73190;-50
2023/06/17 06:44:50;;;;;;;2.60;0.80;;;;;;;23.57;100.00;99647.87;105227;1254;60469;-49
2023/06/17 06:47:17;;;;;;;0.70;0.60;;;;;;;23.65;100.00;99649.85;104761;1254;61731;-51
2023/06/17 06:49:46;;;;;;;1.60;0.80;;;;;;;23.72;100.00;99653.08;104708;1255;73860;-48
2023/06/17 06:52:13;;;;;;;1.90;0.90;;;;;;;23.80;100.00;99650.64;105071;1254;65845;-49
2023/06/17 06:54:42;;;;;;;0.90;0.90;;;;;;;23.89;100.00;99653.02;106395;1253;72698;-48
2023/06/17 06:57:09;;;;;;;0.80;0.80;;;;;;;23.96;100.00;99649.98;105339;1259;60568;-48
2023/06/17 06:59:37;;;;;;;4.50;0.90;;;;;;;24.03;100.00;99654.36;105345;1254;60482;-53
2023/06/17 07:02:04;;;;;;;3.00;1.10;;;;;;;24.11;100.00;99660.13;105448;1261;72608;-49
2023/06/17 07:04:32;;;;;;;0.70;0.70;;;;;;;24.19;100.00;99660.64;105484;1252;68059;-53
2023/06/17 07:07:01;;;;;;;4.00;1.30;;;;;;;24.26;100.00;99659.71;106518;1253;71429;-54
2023/06/17 07:09:31;;;;;;;1.80;0.90;;;;;;;24.32;100.00;99661.20;105328;1252;61166;-50
2023/06/17 07:11:59;;;;;;;1.40;0.70;;;;;;;24.40;100.00;99663.48;105438;1254;60747;-48
2023/06/17 07:14:26;;;;;;;1.20;0.90;;;;;;;24.47;100.00;99667.67;105383;1253;73784;-52
2023/06/17 07:16:53;;;;;;;1.20;1.10;;;;;;;24.53;100.00;99668.11;106490;1254;65438;-53
2023/06/17 07:19:21;;;;;;;1.60;0.80;;;;;;;24.59;100.00;99668.24;105330;1259;72733;-53
2023/06/17 07:21:49;;;;;;;2.30;0.80;;;;;;;24.63;100.00;99668.71;104790;1254;60557;-47
2023/06/17 07:24:16;;;;;;;2.00;0.90;;;;;;;24.68;100.00;99671.03;105489;1254;61791;-52
2023/06/17 07:26:44;;;;;;;2.20;1.10;;;;;;;24.74;100.00;99673.88;104966;1254;73679;-54
2023/06/17 07:29:12;;;;;;;2.10;0.70;;;;;;;24.82;100.00;99678.31;104835;1256;69258;-54
2023/06/17 07:31:39;;;;;;;2.00;1.10;;;;;;;24.89;100.00;99678.15;106747;1253;72725;-49
2023/06/17 07:34:07;;;;;;;2.90;0.80;;;;;;;24.96;100.00;99685.83;105111;1254;60784;-53
2023/06/17 07:36:34;;;;;;;1.10;0.80;;;;;;;25.02;100.00;99681.14;105158;1259;60457;-52
2023/06/17 07:39:03;;;;;;;4.10;0.80;;;;;;;25.11;100.00;99681.13;105370;1254;73183;-50
2023/06/17 07:41:30;;;;;;;2.00;0.80;;;;;;;25.19;100.00;99680.76;106779;1254;67055;-53
2023/06/17 07:43:57;;;;;;;1.30;0.70;;;;;;;25.26;100.00;99681.80;109015;1253;70489;-52
2023/06/17 07:46:25;;;;;;;1.20;1.10;;;;;;;25.33;100.00;99681.06;107259;1253;60562;-50
2023/06/17 07:48:52;;;;;;;0.80;0.80;;;;;;;25.40;100.00;99683.87;105538;1259;60357;-51
2023/06/17 07:51:20;;;;;;;0.90;0.80;;;;;;;25.47;100.00;99676.70;105417;1253;72811;-52
2023/06/17 07:53:47;;;;;;;2.30;0.90;;;;;;;25.53;100.00;99677.42;105398;1253;66769;-50
2023/06/17 07:56:14;;;;;;;1.10;0.80;;;;;;;25.59;100.00;99676.38;105427;1257;72681;-53
2023/06/17 07:58:43;;;;;;;2.50;1.00;;;;;;;25.64;100.00;99676.30;105351;1254;60567;-54
2023/06/17 08:01:11;;;;;;;3.70;0.90;;;;;;;25.68;100.00;99673.44;105346;1254;60530;-53
2023/06/17 08:03:39;;;;;;;1.00;0.90;;;;;;;25.76;100.00;99674.61;105386;1254;75444;-50
2023/06/17 08:06:06;;;;;;;5.30;1.00;;;;;;;25.84;100.00;99677.89;107129;1254;66900;-50
2023/06/17 08:08:33;;;;;;;1.60;0.90;;;;;;;25.92;100.00;99676.36;105208;1257;72696;-50
2023/06/17 08:11:01;;;;;;;1.10;0.90;;;;;;;26.02;100.00;99676.86;105110;1253;60444;-52
2023/06/17 08:13:28;;;;;;;2.90;0.90;;;;;;;26.13;100.00;99679.02;104931;1253;60469;-50
2023/06/17 08:15:56;;;;;;;3.10;0.90;;;;;;;26.16;100.00;99676.81;104906;1256;75741;-51
2023/06/17 08:18:24;;;;;;;1.10;0.90;;;;;;;26.16;100.00;99673.15;105730;1253;66944;-53
2023/06/17 08:20:51;;;;;;;2.70;0.80;;;;;;;26.15;100.00;99672.67;105456;1257;73108;-51
2023/06/17 08:23:20;;;;;;;1.80;0.80;;;;;;;26.12;100.00;99672.26;105337;1254;60590;-49
2023/06/17 08:25:49;;;;;;;0.90;0.90;;;;;;;26.09;100.00;99671.52;105444;1252;60440;-51
2023/06/17 08:28:16;;;;;;;1.80;0.90;;;;;;;26.09;100.00;99670.83;105337;1257;73391;-51
2023/06/17 08:30:44;;;;;;;3.40;1.30;;;;;;;26.11;100.00;99670.83;105497;1254;66754;-51
2023/06/17 08:33:11;;;;;;;1.50;1.00;;;;;;;26.11;100.00;99666.73;105515;1254;71907;-49
2023/06/17 08:35:38;;;;;;;0.80;0.80;;;;;;;26.14;100.00;99669.45;105518;1254;60539;-49
2023/06/17 08:38:06;;;;;;;2.60;1.10;;;;;;;26.19;100.00;99668.95;105397;1253;60454;-50
2023/06/17 08:40:33;;;;;;;1.30;0.80;;;;;;;26.20;100.00;99670.77;105325;1253;74364;-49
2023/06/17 08:43:02;;;;;;;3.20;0.90;;;;;;;26.15;100.00;99668.08;105253;1254;67096;-52
2023/06/17 08:45:29;;;;;;;1.20;0.90;;;;;;;26.09;100.00;99661.83;105431;1257;71854;-54
2023/06/17 08:47:57;;;;;;;1.20;0.80;;;;;;;26.09;100.00;99660.70;105350;1257;61556;-51
2023/06/17 08:50:26;;;;;;;3.20;1.00;;;;;;;26.15;100.00;99656.36;105497;1257;60475;-48
2023/06/17 08:52:53;;;;;;;3.10;0.90;;;;;;;26.22;100.00;99655.28;109132;1252;72577;-52
2023/06/17 08:55:21;;;;;;;1.10;0.90;;;;;;;26.32;100.00;99657.49;109167;1252;65965;-54
2023/06/17 08:57:50;;;;;;;1.70;0.90;;;;;;;26.37;100.00;99658.67;108887;1254;72677;-53
2023/06/17 09:00:17;;;;;;;3.50;1.20;;;;;;;26.42;100.00;99654.56;108938;1253;59916;-53
2023/06/17 09:02:45;;;;;;;1.40;0.80;;;;;;;26.45;100.00;99656.17;109128;1252;59672;-54
2023/06/17 09:05:13;;;;;;;2.60;1.10;;;;;;;26.48;100.00;99657.60;109053;1253;76090;-53
2023/06/17 09:07:41;;;;;;;2.20;0.90;;;;;;;26.52;100.00;99653.45;109065;1253;65932;-50
2023/06/17 09:10:11;;;;;;;3.50;0.90;;;;;;;26.60;100.00;99646.35;109223;1252;71350;-49
2023/06/17 09:12:38;;;;;;;0.90;0.80;;;;;;;26.67;100.00;99641.11;109143;1252;60041;-52
2023/06/17 09:15:07;;;;;;;0.80;0.80;;;;;;;26.70;100.00;99640.10;109149;1256;59936;-49
2023/06/17 09:17:36;;;;;;;1.10;0.90;;;;;;;26.74;100.00;99638.52;107495;1253;74043;-52
2023/06/17 09:20:11;;;;;;;1.60;1.10;;;;;;;26.77;100.00;99633.10;109205;1253;65745;-51
2023/06/17 09:22:40;;;;;;;1.30;1.00;;;;;;;26.78;100.00;99637.02;109184;1254;72639;-51
2023/06/17 09:25:11;;;;;;;2.60;1.00;;;;;;;26.75;100.00;99636.62;109156;1253;60063;-52
2023/06/17 09:27:49;;;;;;;1.00;0.90;;;;;;;26.68;100.00;99633.00;107813;1253;60058;-50
2023/06/17 09:30:41;;;;;;;1.00;0.90;;;;;;;26.59;100.00;99632.08;105303;1257;72683;-49
2023/06/17 09:33:17;;;;;;;3.00;1.00;;;;;;;26.48;100.00;99628.60;105361;1253;66782;-51
2023/06/17 09:35:46;;;;;;;1.70;1.00;;;;;;;26.38;100.00;99622.40;106850;1254;71292;-51
2023/06/17 09:38:17;;;;;;;5.40;1.10;;;;;;;26.32;100.00;99618.06;106685;1259;60531;-52
2023/06/17 09:40:47;;;;;;;1.00;0.90;;;;;;;26.26;100.00;99612.91;105990;1252;60577;-50
2023/06/17 09:43:14;;;;;;;1.80;1.00;;;;;;;26.21;100.00;99604.65;105363;1257;73855;-50
2023/06/17 09:46:02;;;;;;;3.10;0.80;;;;;;;26.16;100.00;99599.95;106651;1253;67935;-50
2023/06/17 09:48:31;;;;;;;1.10;0.80;;;;;;;26.10;100.00;99594.98;105475;1257;72423;-49
2023/06/17 09:50:59;;;;;;;2.00;0.80;;;;;;;26.05;100.00;99591.24;106203;1254;60485;-54
2023/06/17 09:53:28;;;;;;;2.70;0.90;;;;;;;26.02;100.00;99587.38;105356;1254;60571;-53
2023/06/17 09:55:58;;;;;;;2.40;1.00;;;;;;;25.99;100.00;99581.62;108725;1256;72634;-51
2023/06/17 09:58:28;;;;;;;1.00;0.80;;;;;;;25.96;100.00;99574.41;105505;1254;65466;-49
2023/06/17 10:01:00;;;;;;;4.70;0.90;;;;;;;25.92;100.00;99572.55;105551;1258;72416;-49
2023/06/17 10:03:28;;;;;;;2.30;0.90;;;;;;;25.89;100.00;99570.34;105556;1256;60536;-51
2023/06/17 10:06:07;;;;;;;0.90;0.90;;;;;;;25.90;100.00;99565.58;105509;1254;60447;-50
2023/06/17 10:08:35;;;;;;;4.10;0.90;;;;;;;25.94;100.00;99559.23;105327;1254;74124;-52
2023/06/17 10:11:03;;;;;;;0.90;0.80;;;;;;;25.97;100.00;99556.35;105761;1254;66100;-51
2023/06/17 10:13:36;;;;;;;2.20;0.90;;;;;;;25.97;100.00;99553.00;105230;1254;72676;-52
2023/06/17 10:16:07;;;;;;;1.20;1.10;;;;;;;25.96;100.00;99551.29;107203;1256;59423;-54
2023/06/17 10:18:35;;;;;;;2.40;0.90;;;;;;;25.91;100.00;99545.45;106119;1253;60617;-52
2023/06/17 10:21:03;;;;;;;2.60;0.80;;;;;;;25.84;100.00;99539.83;106189;1258;74177;-49
2023/06/17 10:23:30;;;;;;;1.20;1.10;;;;;;;25.79;100.00;99537.44;105407;1258;66481;-52
2023/06/17 10:25:58;;;;;;;1.00;0.90;;;;;;;25.76;100.00;99533.77;105405;1257;72447;-50
2023/06/17 10:28:43;;;;;;;2.70;0.90;;;;;;;25.72;100.00;99531.50;105342;1257;60809;-50
2023/06/17 10:31:30;;;;;;;1.00;0.90;;;;;;;25.70;100.00;99526.05;105314;1259;60432;-55
2023/06/17 10:34:01;;;;;;;1.30;0.80;;;;;;;25.71;100.00;99515.48;105594;1259;74260;-53
2023/06/17 10:36:28;;;;;;;1.30;0.90;;;;;;;25.74;100.00;99512.75;105575;1254;66813;-53
2023/06/17 10:38:57;;;;;;;1.60;0.90;;;;;;;25.80;100.00;99508.95;105664;1259;73809;-47
2023/06/17 10:41:38;;;;;;;0.90;0.90;;;;;;;25.88;100.00;99505.89;106443;1253;60496;-51
2023/06/17 10:44:43;;;;;;;1.30;1.00;;;;;;;25.99;100.00;99507.02;105610;1252;60600;-50
2023/06/17 10:47:21;;;;;;;1.20;1.00;;;;;;;26.06;100.00;99503.30;105614;1254;72627;-50
2023/06/17 10:49:49;;;;;;;1.10;1.00;;;;;;;26.08;100.00;99502.09;105893;1256;66884;-49
2023/06/17 10:52:16;;;;;;;1.00;0.90;;;;;;;26.09;100.00;99501.13;105640;1254;72676;-49
2023/06/17 10:54:48;;;;;;;2.70;1.00;;;;;;;26.05;100.00;99492.71;105961;1259;60963;-52
2023/06/17 10:57:15;;;;;;;1.50;0.90;;;;;;;25.99;100.00;99499.05;105465;1254;60533;-51
2023/06/17 10:59:42;;;;;;;1.10;1.00;;;;;;;25.96;100.00;99495.20;105610;1252;74078;-55
2023/06/17 11:02:10;;;;;;;2.20;0.90;;;;;;;25.94;100.00;99495.23;105506;1255;66780;-55
2023/06/17 11:04:40;;;;;;;3.70;1.00;;;;;;;25.94;100.00;99491.57;105628;1253;72684;-53
2023/06/17 11:07:08;;;;;;;2.50;1.10;;;;;;;25.94;100.00;99486.85;105834;1256;61133;-54
2023/06/17 11:09:36;;;;;;;0.90;0.90;;;;;;;25.93;100.00;99484.55;105598;1256;60434;-54
2023/06/17 11:12:04;;;;;;;4.00;1.00;;;;;;;25.94;100.00;99481.50;105586;1254;73827;-49
2023/06/17 11:14:32;;;;;;;2.80;1.10;;;;;;;25.95;100.00;99477.28;105685;1253;66763;-50
2023/06/17 11:17:00;;;;;;;1.00;0.90;;;;;;;26.01;100.00;99476.98;106048;1254;72679;-51
2023/06/17 11:19:27;;;;;;;0.90;0.80;;;;;;;26.12;100.00;99472.24;109067;1254;60003;-52
2023/06/17 11:21:57;;;;;;;0.80;0.80;;;;;;;26.25;100.00;99464.77;109053;1253;59658;-52
2023/06/17 11:24:25;;;;;;;2.10;0.90;;;;;;;26.41;100.00;99464.42;105840;1253;74903;-52
2023/06/17 11:26:54;;;;;;;1.00;0.90;;;;;;;26.53;100.00;99462.55;105458;1254;66766;-48